createdAt,value
2022-08-30T00:00:12.589Z,207.44
2022-08-30T00:01:14.406Z,208.10
2022-08-30T00:02:12.767Z,207.97
2022-08-30T00:03:13.098Z,206.93
2022-08-30T00:04:12.913Z,208.89
2022-08-30T00:05:12.967Z,206.79
2022-08-30T00:06:13.053Z,208.10
2022-08-30T00:07:13.131Z,206.41
2022-08-30T00:08:13.205Z,206.41
2022-08-30T00:09:13.314Z,207.18
2022-08-30T00:10:13.423Z,207.57
2022-08-30T00:11:13.450Z,207.31
2022-08-30T00:12:13.547Z,208.36
2022-08-30T00:13:13.656Z,208.62
2022-08-30T00:14:13.683Z,207.18
2022-08-30T00:15:13.760Z,207.05
2022-08-30T00:16:13.907Z,208.10
2022-08-30T00:17:13.916Z,207.84
2022-08-30T00:18:14.004Z,208.62
2022-08-30T00:19:14.066Z,207.05
2022-08-30T00:20:14.154Z,208.23
2022-08-30T00:21:14.242Z,207.18
2022-08-30T00:22:14.316Z,206.79
2022-08-30T00:23:14.390Z,208.49
2022-08-30T00:24:14.475Z,206.67
2022-08-30T00:25:14.557Z,207.97
2022-08-30T00:26:14.642Z,208.36
2022-08-30T00:27:14.719Z,207.84
2022-08-30T00:28:14.799Z,208.10
2022-08-30T00:29:14.871Z,207.18
2022-08-30T00:30:14.957Z,207.57
2022-08-30T00:31:15.410Z,207.71
2022-08-30T00:32:15.130Z,206.79
2022-08-30T00:33:15.614Z,208.23
2022-08-30T00:34:15.287Z,207.31
2022-08-30T00:35:15.364Z,206.93
2022-08-30T00:36:15.481Z,206.93
2022-08-30T00:37:15.522Z,206.54
2022-08-30T00:38:15.603Z,207.18
2022-08-30T00:39:15.687Z,207.71
2022-08-30T00:40:15.959Z,207.57
2022-08-30T00:41:15.873Z,208.10
2022-08-30T00:42:15.935Z,208.36
2022-08-30T00:43:16.282Z,208.10
2022-08-30T00:44:16.083Z,208.23
2022-08-30T00:45:16.158Z,208.62
2022-08-30T00:46:16.309Z,209.68
2022-08-30T00:47:16.319Z,208.62
2022-08-30T00:48:16.398Z,206.67
2022-08-30T00:49:16.475Z,207.57
2022-08-30T00:50:16.569Z,207.31
2022-08-30T00:51:16.676Z,207.05
2022-08-30T00:52:16.737Z,207.97
2022-08-30T00:53:16.965Z,207.97
2022-08-30T00:54:16.902Z,207.31
2022-08-30T00:55:17.006Z,208.10
2022-08-30T00:56:17.095Z,207.18
2022-08-30T00:57:17.131Z,205.77
2022-08-30T00:58:17.214Z,207.31
2022-08-30T00:59:17.335Z,205.89
2022-08-30T01:00:17.393Z,208.23
2022-08-30T01:01:17.536Z,207.31
2022-08-30T01:02:17.574Z,206.54
2022-08-30T01:03:17.850Z,206.54
2022-08-30T01:04:17.698Z,205.64
2022-08-30T01:05:17.902Z,206.41
2022-08-30T01:06:17.882Z,205.64
2022-08-30T01:07:17.951Z,205.64
2022-08-30T01:08:18.046Z,206.79
2022-08-30T01:09:18.103Z,207.18
2022-08-30T01:10:18.217Z,205.13
2022-08-30T01:11:18.253Z,206.02
2022-08-30T01:12:18.342Z,205.64
2022-08-30T01:13:18.424Z,206.67
2022-08-30T01:14:18.508Z,206.67
2022-08-30T01:15:18.606Z,207.18
2022-08-30T01:16:18.723Z,206.41
2022-08-30T01:17:18.753Z,206.54
2022-08-30T01:18:18.880Z,205.51
2022-08-30T01:19:18.927Z,205.13
2022-08-30T01:20:19.047Z,204.37
2022-08-30T01:21:19.055Z,205.26
2022-08-30T01:22:19.141Z,206.28
2022-08-30T01:23:19.209Z,205.38
2022-08-30T01:24:19.296Z,205.13
2022-08-30T01:25:19.365Z,205.26
2022-08-30T01:26:21.865Z,205.13
2022-08-30T01:27:19.487Z,205.51
2022-08-30T01:28:19.563Z,205.38
2022-08-30T01:29:19.653Z,205.38
2022-08-30T01:30:19.741Z,205.26
2022-08-30T01:31:19.867Z,204.62
2022-08-30T01:32:21.279Z,205.89
2022-08-30T01:33:19.991Z,204.75
2022-08-30T01:34:20.076Z,205.51
2022-08-30T01:35:20.146Z,205.38
2022-08-30T01:36:20.221Z,204.24
2022-08-30T01:37:20.288Z,205.64
2022-08-30T01:38:20.364Z,205.13
2022-08-30T01:39:20.444Z,204.62
2022-08-30T01:40:20.591Z,204.49
2022-08-30T01:41:20.587Z,204.11
2022-08-30T01:42:20.694Z,205.13
2022-08-30T01:43:20.761Z,205.26
2022-08-30T01:44:20.821Z,205.38
2022-08-30T01:45:20.899Z,205.00
2022-08-30T01:46:21.067Z,204.37
2022-08-30T01:47:21.090Z,204.11
2022-08-30T01:48:21.146Z,204.49
2022-08-30T01:49:27.448Z,205.00
2022-08-30T01:50:21.316Z,205.26
2022-08-30T01:51:21.370Z,204.62
2022-08-30T01:52:21.436Z,203.61
2022-08-30T01:53:21.501Z,205.13
2022-08-30T01:54:21.603Z,204.24
2022-08-30T01:55:21.668Z,204.11
2022-08-30T01:56:21.745Z,203.61
2022-08-30T01:57:21.813Z,203.86
2022-08-30T01:58:21.890Z,204.24
2022-08-30T01:59:21.980Z,204.24
2022-08-30T02:00:22.065Z,203.24
2022-08-30T02:01:22.197Z,204.37
2022-08-30T02:02:22.206Z,204.87
2022-08-30T02:03:22.315Z,204.11
2022-08-30T02:04:22.385Z,203.74
2022-08-30T02:05:22.445Z,202.74
2022-08-30T02:06:22.525Z,202.61
2022-08-30T02:07:22.598Z,203.61
2022-08-30T02:08:22.689Z,205.13
2022-08-30T02:09:22.758Z,203.74
2022-08-30T02:10:22.848Z,202.24
2022-08-30T02:11:22.925Z,202.99
2022-08-30T02:12:23.004Z,202.99
2022-08-30T02:13:23.084Z,202.99
2022-08-30T02:14:23.208Z,202.49
2022-08-30T02:15:23.254Z,203.11
2022-08-30T02:16:23.353Z,202.99
2022-08-30T02:17:23.421Z,202.12
2022-08-30T02:18:23.495Z,203.74
2022-08-30T02:19:23.613Z,202.12
2022-08-30T02:20:23.721Z,202.49
2022-08-30T02:21:23.754Z,203.36
2022-08-30T02:22:23.853Z,201.87
2022-08-30T02:23:23.934Z,202.24
2022-08-30T02:24:23.999Z,201.99
2022-08-30T02:25:24.047Z,203.11
2022-08-30T02:26:24.135Z,201.75
2022-08-30T02:27:24.220Z,200.77
2022-08-30T02:28:24.698Z,201.87
2022-08-30T02:29:24.390Z,202.12
2022-08-30T02:30:24.514Z,201.99
2022-08-30T02:31:24.539Z,200.65
2022-08-30T02:32:24.641Z,200.77
2022-08-30T02:33:24.697Z,201.99
2022-08-30T02:34:24.798Z,201.26
2022-08-30T02:35:24.898Z,202.37
2022-08-30T02:36:24.985Z,200.16
2022-08-30T02:37:25.028Z,202.37
2022-08-30T02:38:25.119Z,200.77
2022-08-30T02:39:25.198Z,201.62
2022-08-30T02:40:25.355Z,201.50
2022-08-30T02:41:25.362Z,201.62
2022-08-30T02:42:25.442Z,201.13
2022-08-30T02:43:25.516Z,201.99
2022-08-30T02:44:25.613Z,201.75
2022-08-30T02:45:25.665Z,201.13
2022-08-30T02:46:25.795Z,201.62
2022-08-30T02:47:25.825Z,201.99
2022-08-30T02:48:25.908Z,201.26
2022-08-30T02:49:34.082Z,201.87
2022-08-30T02:50:26.080Z,202.74
2022-08-30T02:51:26.162Z,202.99
2022-08-30T02:52:27.718Z,202.74
2022-08-30T02:53:26.319Z,202.86
2022-08-30T02:54:26.401Z,201.62
2022-08-30T02:55:26.471Z,203.11
2022-08-30T02:56:26.551Z,202.61
2022-08-30T02:57:26.612Z,202.61
2022-08-30T02:58:26.701Z,202.24
2022-08-30T02:59:26.762Z,202.86
2022-08-30T03:00:26.862Z,202.74
2022-08-30T03:01:29.339Z,202.74
2022-08-30T03:02:26.996Z,202.49
2022-08-30T03:03:27.119Z,202.24
2022-08-30T03:04:27.164Z,203.36
2022-08-30T03:05:27.239Z,203.99
2022-08-30T03:06:27.332Z,202.74
2022-08-30T03:07:27.422Z,202.86
2022-08-30T03:08:27.503Z,203.86
2022-08-30T03:09:27.560Z,203.49
2022-08-30T03:10:27.631Z,202.86
2022-08-30T03:11:27.732Z,203.36
2022-08-30T03:12:27.821Z,203.24
2022-08-30T03:13:27.897Z,203.86
2022-08-30T03:14:28.019Z,202.12
2022-08-30T03:15:28.045Z,201.99
2022-08-30T03:16:28.171Z,203.74
2022-08-30T03:17:28.206Z,204.49
2022-08-30T03:18:28.305Z,204.37
2022-08-30T03:19:28.383Z,203.24
2022-08-30T03:20:28.468Z,203.36
2022-08-30T03:21:28.531Z,204.49
2022-08-30T03:22:28.611Z,202.86
2022-08-30T03:23:28.693Z,203.99
2022-08-30T03:24:28.766Z,203.99
2022-08-30T03:25:28.854Z,203.86
2022-08-30T03:26:28.945Z,203.99
2022-08-30T03:27:29.004Z,203.86
2022-08-30T03:28:29.103Z,205.38
2022-08-30T03:29:29.187Z,205.38
2022-08-30T03:30:29.306Z,203.86
2022-08-30T03:31:29.412Z,204.11
2022-08-30T03:32:29.448Z,205.38
2022-08-30T03:33:29.535Z,205.38
2022-08-30T03:34:29.600Z,205.00
2022-08-30T03:35:29.692Z,204.49
2022-08-30T03:36:29.755Z,203.24
2022-08-30T03:37:29.844Z,204.37
2022-08-30T03:38:29.930Z,205.13
2022-08-30T03:39:29.986Z,204.49
2022-08-30T03:40:30.137Z,204.87
2022-08-30T03:41:30.147Z,205.13
2022-08-30T03:42:30.250Z,204.24
2022-08-30T03:43:30.341Z,204.24
2022-08-30T03:44:30.414Z,205.64
2022-08-30T03:45:30.480Z,203.99
2022-08-30T03:46:32.596Z,205.00
2022-08-30T03:47:30.629Z,204.87
2022-08-30T03:48:30.703Z,205.64
2022-08-30T03:49:30.774Z,205.38
2022-08-30T03:50:30.816Z,204.75
2022-08-30T03:51:30.904Z,205.51
2022-08-30T03:52:30.985Z,206.02
2022-08-30T03:53:31.367Z,205.64
2022-08-30T03:54:31.135Z,204.87
2022-08-30T03:55:31.247Z,203.99
2022-08-30T03:56:31.292Z,206.15
2022-08-30T03:57:31.383Z,205.26
2022-08-30T03:58:31.478Z,205.38
2022-08-30T03:59:31.563Z,205.77
2022-08-30T04:00:31.647Z,205.00
2022-08-30T04:01:31.748Z,204.62
2022-08-30T04:02:31.861Z,205.77
2022-08-30T04:03:31.909Z,206.41
2022-08-30T04:04:31.992Z,205.00
2022-08-30T04:05:32.071Z,205.38
2022-08-30T04:06:32.158Z,205.77
2022-08-30T04:07:32.256Z,203.24
2022-08-30T04:08:32.334Z,204.49
2022-08-30T04:09:32.425Z,206.28
2022-08-30T04:10:32.511Z,205.38
2022-08-30T04:11:32.592Z,205.51
2022-08-30T04:12:32.693Z,204.75
2022-08-30T04:13:32.802Z,205.13
2022-08-30T04:14:32.855Z,205.51
2022-08-30T04:15:32.951Z,205.89
2022-08-30T04:16:33.105Z,207.31
2022-08-30T04:17:33.097Z,206.28
2022-08-30T04:18:33.180Z,203.99
2022-08-30T04:19:33.290Z,205.77
2022-08-30T04:20:33.332Z,206.15
2022-08-30T04:21:33.416Z,206.41
2022-08-30T04:22:33.511Z,206.02
2022-08-30T04:23:33.587Z,206.15
2022-08-30T04:24:33.631Z,205.00
2022-08-30T04:25:33.706Z,205.64
2022-08-30T04:26:33.788Z,206.41
2022-08-30T04:27:33.859Z,205.64
2022-08-30T04:28:33.941Z,205.64
2022-08-30T04:29:34.012Z,206.15
2022-08-30T04:30:34.059Z,205.51
2022-08-30T04:31:34.174Z,205.64
2022-08-30T04:32:34.224Z,205.89
2022-08-30T04:33:34.314Z,204.62
2022-08-30T04:34:34.375Z,207.05
2022-08-30T04:35:34.460Z,205.00
2022-08-30T04:36:34.527Z,206.28
2022-08-30T04:37:34.674Z,206.41
2022-08-30T04:38:34.709Z,207.18
2022-08-30T04:39:34.786Z,206.41
2022-08-30T04:40:34.923Z,207.44
2022-08-30T04:41:34.918Z,206.54
2022-08-30T04:42:34.990Z,205.89
2022-08-30T04:43:35.071Z,207.97
2022-08-30T04:44:35.123Z,206.28
2022-08-30T04:45:35.239Z,207.31
2022-08-30T04:46:35.280Z,205.89
2022-08-30T04:47:35.378Z,207.18
2022-08-30T04:48:35.493Z,206.93
2022-08-30T04:49:35.576Z,207.71
2022-08-30T04:50:35.676Z,206.79
2022-08-30T04:51:35.768Z,206.93
2022-08-30T04:52:35.824Z,207.84
2022-08-30T04:53:35.912Z,207.05
2022-08-30T04:54:35.970Z,205.89
2022-08-30T04:55:36.049Z,205.77
2022-08-30T04:56:36.131Z,205.13
2022-08-30T04:57:36.214Z,207.57
2022-08-30T04:58:36.269Z,205.64
2022-08-30T04:59:36.348Z,207.97
2022-08-30T05:00:36.477Z,206.54
2022-08-30T05:01:45.010Z,207.97
2022-08-30T05:02:36.673Z,206.02
2022-08-30T05:03:36.733Z,207.18
2022-08-30T05:04:36.778Z,205.89
2022-08-30T05:05:36.872Z,206.67
2022-08-30T05:06:36.951Z,205.77
2022-08-30T05:07:37.041Z,205.38
2022-08-30T05:08:37.119Z,204.24
2022-08-30T05:09:37.206Z,204.75
2022-08-30T05:10:37.313Z,203.11
2022-08-30T05:11:37.360Z,205.00
2022-08-30T05:12:37.436Z,205.00
2022-08-30T05:13:37.509Z,204.75
2022-08-30T05:14:37.603Z,203.61
2022-08-30T05:15:37.679Z,203.86
2022-08-30T05:16:37.809Z,204.37
2022-08-30T05:17:37.867Z,204.11
2022-08-30T05:18:37.932Z,202.86
2022-08-30T05:19:38.016Z,202.61
2022-08-30T05:20:38.098Z,202.74
2022-08-30T05:21:38.192Z,202.37
2022-08-30T05:22:38.272Z,202.86
2022-08-30T05:23:38.329Z,202.37
2022-08-30T05:24:38.456Z,202.86
2022-08-30T05:25:38.476Z,202.37
2022-08-30T05:26:38.699Z,201.99
2022-08-30T05:27:38.653Z,201.87
2022-08-30T05:28:38.727Z,202.12
2022-08-30T05:29:38.815Z,201.13
2022-08-30T05:30:38.905Z,202.12
2022-08-30T05:31:39.031Z,201.99
2022-08-30T05:32:39.046Z,200.04
2022-08-30T05:33:39.130Z,201.50
2022-08-30T05:34:39.203Z,202.61
2022-08-30T05:35:39.287Z,202.86
2022-08-30T05:36:39.389Z,201.26
2022-08-30T05:37:39.476Z,201.75
2022-08-30T05:38:39.562Z,201.01
2022-08-30T05:39:45.048Z,199.31
2022-08-30T05:40:39.789Z,200.40
2022-08-30T05:41:39.815Z,202.12
2022-08-30T05:42:39.896Z,200.40
2022-08-30T05:43:40.035Z,201.26
2022-08-30T05:44:40.076Z,200.16
2022-08-30T05:45:40.124Z,200.52
2022-08-30T05:46:40.241Z,201.26
2022-08-30T05:47:40.266Z,201.62
2022-08-30T05:48:40.350Z,200.77
2022-08-30T05:49:40.426Z,200.52
2022-08-30T05:50:40.520Z,200.16
2022-08-30T05:51:43.343Z,200.16
2022-08-30T05:52:40.678Z,201.01
2022-08-30T05:53:40.751Z,200.16
2022-08-30T05:54:40.834Z,200.16
2022-08-30T05:55:40.929Z,201.01
2022-08-30T05:56:40.996Z,200.40
2022-08-30T05:57:41.072Z,199.31
2022-08-30T05:58:41.157Z,201.13
2022-08-30T05:59:41.261Z,198.84
2022-08-30T06:00:41.319Z,199.80
2022-08-30T06:01:41.455Z,199.92
2022-08-30T06:02:41.527Z,199.68
2022-08-30T06:03:41.539Z,199.55
2022-08-30T06:04:41.608Z,199.19
2022-08-30T06:05:41.728Z,201.26
2022-08-30T06:06:41.782Z,199.92
2022-08-30T06:07:41.849Z,199.68
2022-08-30T06:08:41.922Z,198.84
2022-08-30T06:09:42.003Z,199.92
2022-08-30T06:10:42.103Z,199.80
2022-08-30T06:11:42.179Z,199.31
2022-08-30T06:12:42.222Z,198.95
2022-08-30T06:13:42.309Z,199.80
2022-08-30T06:14:42.400Z,199.07
2022-08-30T06:15:42.515Z,199.07
2022-08-30T06:16:42.587Z,200.28
2022-08-30T06:17:42.646Z,200.28
2022-08-30T06:18:42.763Z,198.36
2022-08-30T06:19:42.834Z,199.92
2022-08-30T06:20:42.926Z,198.71
2022-08-30T06:21:43.012Z,198.71
2022-08-30T06:22:43.097Z,198.24
2022-08-30T06:23:43.173Z,198.71
2022-08-30T06:24:56.968Z,198.84
2022-08-30T06:25:43.355Z,199.07
2022-08-30T06:26:43.410Z,198.48
2022-08-30T06:27:43.478Z,198.71
2022-08-30T06:28:43.560Z,198.24
2022-08-30T06:29:43.638Z,198.36
2022-08-30T06:30:43.741Z,198.36
2022-08-30T06:31:43.888Z,198.00
2022-08-30T06:32:43.897Z,198.95
2022-08-30T06:33:43.999Z,198.60
2022-08-30T06:34:44.048Z,198.24
2022-08-30T06:35:58.391Z,198.60
2022-08-30T06:36:44.221Z,198.48
2022-08-30T06:37:44.339Z,196.82
2022-08-30T06:38:44.392Z,198.24
2022-08-30T06:39:44.482Z,198.48
2022-08-30T06:40:44.580Z,198.60
2022-08-30T06:41:44.619Z,198.00
2022-08-30T06:42:44.712Z,198.36
2022-08-30T06:43:48.850Z,197.65
2022-08-30T06:44:45.707Z,198.36
2022-08-30T06:45:44.972Z,198.71
2022-08-30T06:46:45.075Z,198.24
2022-08-30T06:47:45.095Z,197.88
2022-08-30T06:48:47.790Z,197.88
2022-08-30T06:49:45.257Z,197.29
2022-08-30T06:50:45.341Z,197.76
2022-08-30T06:51:45.422Z,197.76
2022-08-30T06:52:45.520Z,196.59
2022-08-30T06:53:45.605Z,197.29
2022-08-30T06:54:45.693Z,197.29
2022-08-30T06:55:45.781Z,196.01
2022-08-30T06:56:58.030Z,197.29
2022-08-30T06:57:45.922Z,197.53
2022-08-30T06:58:45.983Z,198.60
2022-08-30T06:59:46.108Z,196.94
2022-08-30T07:00:46.164Z,198.36
2022-08-30T07:01:46.361Z,196.01
2022-08-30T07:02:46.417Z,198.24
2022-08-30T07:03:46.441Z,197.06
2022-08-30T07:04:46.494Z,197.53
2022-08-30T07:05:46.598Z,196.94
2022-08-30T07:06:46.647Z,195.66
2022-08-30T07:07:46.748Z,197.41
2022-08-30T07:08:46.805Z,196.82
2022-08-30T07:09:46.908Z,197.53
2022-08-30T07:10:46.973Z,197.65
2022-08-30T07:11:47.030Z,197.06
2022-08-30T07:12:47.105Z,197.53
2022-08-30T07:13:47.188Z,196.82
2022-08-30T07:14:47.311Z,196.94
2022-08-30T07:15:47.455Z,197.53
2022-08-30T07:16:47.424Z,197.76
2022-08-30T07:17:47.508Z,197.65
2022-08-30T07:18:47.584Z,196.12
2022-08-30T07:19:47.686Z,197.06
2022-08-30T07:20:47.757Z,197.65
2022-08-30T07:21:47.832Z,195.31
2022-08-30T07:22:47.900Z,196.35
2022-08-30T07:23:52.618Z,197.53
2022-08-30T07:24:48.061Z,195.20
2022-08-30T07:25:48.147Z,196.59
2022-08-30T07:26:48.262Z,197.53
2022-08-30T07:27:48.301Z,196.59
2022-08-30T07:28:48.382Z,195.66
2022-08-30T07:29:48.464Z,196.35
2022-08-30T07:30:48.576Z,196.01
2022-08-30T07:31:48.614Z,196.82
2022-08-30T07:32:48.687Z,196.01
2022-08-30T07:33:48.801Z,195.43
2022-08-30T07:34:48.845Z,195.89
2022-08-30T07:35:48.937Z,195.89
2022-08-30T07:36:49.004Z,195.43
2022-08-30T07:37:49.059Z,196.94
2022-08-30T07:38:49.190Z,195.20
2022-08-30T07:39:49.230Z,195.20
2022-08-30T07:40:49.330Z,195.89
2022-08-30T07:41:49.397Z,195.54
2022-08-30T07:42:49.476Z,196.01
2022-08-30T07:43:49.595Z,195.08
2022-08-30T07:44:51.847Z,196.12
2022-08-30T07:45:49.725Z,195.54
2022-08-30T07:46:49.851Z,196.71
2022-08-30T07:47:49.867Z,195.43
2022-08-30T07:48:49.931Z,195.43
2022-08-30T07:49:50.014Z,195.31
2022-08-30T07:50:52.613Z,196.12
2022-08-30T07:51:50.181Z,195.08
2022-08-30T07:52:50.231Z,196.59
2022-08-30T07:53:50.326Z,194.85
2022-08-30T07:54:52.781Z,195.77
2022-08-30T07:55:50.517Z,195.66
2022-08-30T07:56:50.564Z,195.43
2022-08-30T07:57:50.663Z,194.51
2022-08-30T07:58:50.730Z,195.43
2022-08-30T07:59:50.785Z,196.24
2022-08-30T08:00:50.901Z,194.28
2022-08-30T08:01:51.010Z,193.48
2022-08-30T08:02:51.095Z,194.96
2022-08-30T08:03:51.118Z,195.43
2022-08-30T08:04:51.211Z,195.20
2022-08-30T08:05:51.297Z,195.89
2022-08-30T08:06:51.369Z,194.74
2022-08-30T08:07:51.450Z,194.39
2022-08-30T08:08:51.543Z,193.93
2022-08-30T08:09:51.663Z,193.93
2022-08-30T08:10:51.700Z,195.08
2022-08-30T08:11:51.796Z,194.16
2022-08-30T08:12:52.236Z,194.62
2022-08-30T08:13:54.178Z,193.82
2022-08-30T08:14:52.021Z,194.05
2022-08-30T08:15:52.260Z,194.16
2022-08-30T08:16:52.207Z,194.39
2022-08-30T08:17:52.263Z,193.71
2022-08-30T08:18:52.343Z,194.74
2022-08-30T08:19:52.440Z,193.93
2022-08-30T08:20:52.560Z,194.85
2022-08-30T08:22:15.265Z,194.85
2022-08-30T08:22:52.691Z,193.48
2022-08-30T08:23:52.772Z,193.93
2022-08-30T08:24:52.849Z,195.08
2022-08-30T08:25:52.944Z,193.26
2022-08-30T08:26:53.025Z,194.39
2022-08-30T08:27:53.176Z,193.37
2022-08-30T08:28:53.171Z,195.43
2022-08-30T08:29:53.243Z,194.39
2022-08-30T08:30:53.394Z,194.85
2022-08-30T08:31:53.427Z,194.05
2022-08-30T08:32:53.472Z,193.37
2022-08-30T08:33:53.578Z,193.71
2022-08-30T08:34:53.655Z,193.93
2022-08-30T08:35:53.745Z,193.48
2022-08-30T08:36:53.823Z,192.58
2022-08-30T08:37:53.902Z,193.82
2022-08-30T08:38:53.983Z,193.37
2022-08-30T08:39:54.054Z,192.80
2022-08-30T08:40:54.154Z,193.03
2022-08-30T08:41:54.216Z,192.80
2022-08-30T08:42:54.288Z,194.05
2022-08-30T08:43:54.368Z,193.60
2022-08-30T08:44:55.444Z,192.80
2022-08-30T08:45:54.560Z,192.80
2022-08-30T08:46:54.603Z,193.03
2022-08-30T08:47:54.651Z,192.92
2022-08-30T08:49:01.907Z,193.14
2022-08-30T08:49:54.806Z,192.47
2022-08-30T08:50:57.520Z,193.48
2022-08-30T08:51:54.969Z,192.92
2022-08-30T08:52:55.045Z,193.60
2022-08-30T08:53:55.133Z,192.80
2022-08-30T08:54:55.214Z,192.13
2022-08-30T08:55:55.300Z,192.13
2022-08-30T08:56:55.376Z,193.82
2022-08-30T08:57:55.443Z,192.13
2022-08-30T08:58:55.541Z,191.80
2022-08-30T08:59:55.586Z,192.02
2022-08-30T09:00:55.686Z,193.14
2022-08-30T09:01:58.012Z,193.14
2022-08-30T09:02:56.102Z,192.58
2022-08-30T09:03:55.886Z,191.80
2022-08-30T09:04:56.054Z,193.14
2022-08-30T09:05:56.054Z,192.13
2022-08-30T09:06:56.131Z,191.69
2022-08-30T09:07:56.216Z,192.80
2022-08-30T09:08:56.300Z,192.47
2022-08-30T09:09:56.371Z,192.24
2022-08-30T09:10:56.460Z,193.03
2022-08-30T09:11:56.537Z,191.13
2022-08-30T09:12:59.907Z,191.57
2022-08-30T09:13:56.843Z,192.92
2022-08-30T09:14:56.798Z,191.80
2022-08-30T09:15:56.934Z,191.46
2022-08-30T09:16:56.958Z,191.91
2022-08-30T09:17:57.022Z,191.69
2022-08-30T09:18:57.106Z,192.02
2022-08-30T09:19:57.149Z,192.13
2022-08-30T09:20:57.272Z,191.35
2022-08-30T09:21:57.300Z,191.80
2022-08-30T09:22:57.407Z,192.69
2022-08-30T09:23:57.481Z,191.57
2022-08-30T09:24:57.572Z,192.13
2022-08-30T09:25:57.723Z,191.24
2022-08-30T09:26:57.747Z,192.69
2022-08-30T09:27:57.833Z,191.02
2022-08-30T09:28:57.957Z,191.35
2022-08-30T09:29:57.978Z,191.57
2022-08-30T09:30:58.161Z,190.80
2022-08-30T09:32:25.823Z,192.02
2022-08-30T09:32:58.268Z,191.91
2022-08-30T09:33:58.306Z,191.91
2022-08-30T09:34:58.397Z,192.13
2022-08-30T09:35:58.488Z,191.69
2022-08-30T09:36:58.554Z,191.80
2022-08-30T09:37:58.612Z,190.14
2022-08-30T09:38:58.698Z,192.02
2022-08-30T09:39:58.805Z,190.80
2022-08-30T09:40:58.960Z,191.91
2022-08-30T09:41:58.914Z,191.24
2022-08-30T09:42:59.006Z,192.13
2022-08-30T09:43:59.082Z,191.24
2022-08-30T09:44:59.185Z,191.80
2022-08-30T09:45:59.325Z,192.36
2022-08-30T09:46:59.356Z,192.58
2022-08-30T09:47:59.426Z,191.80
2022-08-30T09:48:59.527Z,191.13
2022-08-30T09:49:59.601Z,192.02
2022-08-30T09:50:59.684Z,190.80
2022-08-30T09:51:59.758Z,190.36
2022-08-30T09:52:59.872Z,190.69
2022-08-30T09:54:17.269Z,191.35
2022-08-30T09:54:59.987Z,191.02
2022-08-30T09:56:00.096Z,190.58
2022-08-30T09:57:00.220Z,190.14
2022-08-30T09:58:00.241Z,190.69
2022-08-30T09:59:00.382Z,190.58
2022-08-30T10:00:00.423Z,191.46
2022-08-30T10:01:00.585Z,191.02
2022-08-30T10:02:00.576Z,192.69
2022-08-30T10:03:00.674Z,191.24
2022-08-30T10:04:00.742Z,191.69
2022-08-30T10:05:00.829Z,190.80
2022-08-30T10:06:00.897Z,191.57
2022-08-30T10:07:00.993Z,190.03
2022-08-30T10:08:01.069Z,191.57
2022-08-30T10:09:01.122Z,190.25
2022-08-30T10:10:01.211Z,191.35
2022-08-30T10:11:01.300Z,190.80
2022-08-30T10:12:01.353Z,190.91
2022-08-30T10:13:01.437Z,190.25
2022-08-30T10:14:01.507Z,190.36
2022-08-30T10:15:01.626Z,191.13
2022-08-30T10:16:01.681Z,191.69
2022-08-30T10:17:01.739Z,190.58
2022-08-30T10:18:01.817Z,189.27
2022-08-30T10:19:01.961Z,190.36
2022-08-30T10:20:02.047Z,190.47
2022-08-30T10:21:02.078Z,191.13
2022-08-30T10:22:02.154Z,190.25
2022-08-30T10:23:02.244Z,190.14
2022-08-30T10:24:02.333Z,190.36
2022-08-30T10:25:02.390Z,190.03
2022-08-30T10:26:03.354Z,189.82
2022-08-30T10:27:02.617Z,190.03
2022-08-30T10:28:02.605Z,189.82
2022-08-30T10:29:02.686Z,189.92
2022-08-30T10:30:02.829Z,190.80
2022-08-30T10:31:02.845Z,190.80
2022-08-30T10:32:02.907Z,190.36
2022-08-30T10:33:03.057Z,190.91
2022-08-30T10:34:03.066Z,190.03
2022-08-30T10:35:03.140Z,189.71
2022-08-30T10:36:03.242Z,191.13
2022-08-30T10:37:03.298Z,189.60
2022-08-30T10:38:03.384Z,190.69
2022-08-30T10:39:03.474Z,189.71
2022-08-30T10:40:03.596Z,190.47
2022-08-30T10:41:03.632Z,191.13
2022-08-30T10:42:03.752Z,190.69
2022-08-30T10:43:03.771Z,189.71
2022-08-30T10:44:03.864Z,190.14
2022-08-30T10:45:03.963Z,191.02
2022-08-30T10:46:04.038Z,190.47
2022-08-30T10:47:04.191Z,189.92
2022-08-30T10:48:04.208Z,189.92
2022-08-30T10:49:04.275Z,190.25
2022-08-30T10:50:04.347Z,190.03
2022-08-30T10:51:04.424Z,189.38
2022-08-30T10:52:04.503Z,190.03
2022-08-30T10:53:04.633Z,191.13
2022-08-30T10:54:04.675Z,189.82
2022-08-30T10:55:04.772Z,190.25
2022-08-30T10:56:04.841Z,188.62
2022-08-30T10:57:04.912Z,189.92
2022-08-30T10:58:04.957Z,190.36
2022-08-30T10:59:05.054Z,190.47
2022-08-30T11:00:06.108Z,190.58
2022-08-30T11:01:05.971Z,190.69
2022-08-30T11:02:05.280Z,189.71
2022-08-30T11:03:05.338Z,189.60
2022-08-30T11:04:05.414Z,190.03
2022-08-30T11:05:05.516Z,189.27
2022-08-30T11:06:05.572Z,190.36
2022-08-30T11:07:09.699Z,190.36
2022-08-30T11:08:05.772Z,189.71
2022-08-30T11:09:05.850Z,190.80
2022-08-30T11:10:05.958Z,188.95
2022-08-30T11:11:05.998Z,189.38
2022-08-30T11:12:06.075Z,190.47
2022-08-30T11:13:06.170Z,190.14
2022-08-30T11:14:06.247Z,189.27
2022-08-30T11:15:06.321Z,188.62
2022-08-30T11:16:06.369Z,190.14
2022-08-30T11:17:06.446Z,189.05
2022-08-30T11:18:06.511Z,189.82
2022-08-30T11:19:06.604Z,189.71
2022-08-30T11:20:06.700Z,189.60
2022-08-30T11:21:09.173Z,189.60
2022-08-30T11:22:06.848Z,190.36
2022-08-30T11:23:06.897Z,189.71
2022-08-30T11:24:11.053Z,189.16
2022-08-30T11:25:10.242Z,189.38
2022-08-30T11:26:07.509Z,189.38
2022-08-30T11:27:07.231Z,188.73
2022-08-30T11:28:07.384Z,188.19
2022-08-30T11:29:07.478Z,189.38
2022-08-30T11:30:07.487Z,189.05
2022-08-30T11:31:07.545Z,189.05
2022-08-30T11:32:07.606Z,187.98
2022-08-30T11:33:15.544Z,189.05
2022-08-30T11:34:07.770Z,189.60
2022-08-30T11:35:07.809Z,189.16
2022-08-30T11:36:07.896Z,189.16
2022-08-30T11:37:09.647Z,189.82
2022-08-30T11:38:08.044Z,188.62
2022-08-30T11:39:08.123Z,188.95
2022-08-30T11:40:14.260Z,188.19
2022-08-30T11:41:09.532Z,190.14
2022-08-30T11:42:08.337Z,189.27
2022-08-30T11:43:08.454Z,188.95
2022-08-30T11:44:08.507Z,189.38
2022-08-30T11:45:08.562Z,189.49
2022-08-30T11:46:13.926Z,189.27
2022-08-30T11:47:08.728Z,189.38
2022-08-30T11:48:08.808Z,189.60
2022-08-30T11:49:08.896Z,187.87
2022-08-30T11:50:09.892Z,188.19
2022-08-30T11:51:09.061Z,189.38
2022-08-30T11:52:27.632Z,189.38
2022-08-30T11:53:09.337Z,186.92
2022-08-30T11:54:09.310Z,188.41
2022-08-30T11:55:09.377Z,189.16
2022-08-30T11:56:09.459Z,187.98
2022-08-30T11:57:09.552Z,188.09
2022-08-30T11:58:11.621Z,188.52
2022-08-30T11:59:09.752Z,188.62
2022-08-30T12:00:09.790Z,188.09
2022-08-30T12:01:20.680Z,189.16
2022-08-30T12:02:10.061Z,188.73
2022-08-30T12:03:10.309Z,189.05
2022-08-30T12:04:10.137Z,188.19
2022-08-30T12:05:10.234Z,188.52
2022-08-30T12:06:10.301Z,187.98
2022-08-30T12:07:10.384Z,188.95
2022-08-30T12:08:10.519Z,187.98
2022-08-30T12:09:10.534Z,187.66
2022-08-30T12:10:10.648Z,188.19
2022-08-30T12:11:10.724Z,188.09
2022-08-30T12:12:10.820Z,188.73
2022-08-30T12:13:10.882Z,189.05
2022-08-30T12:14:15.450Z,187.77
2022-08-30T12:15:11.032Z,188.73
2022-08-30T12:16:11.143Z,187.55
2022-08-30T12:17:11.195Z,188.52
2022-08-30T12:18:15.702Z,188.09
2022-08-30T12:19:11.452Z,188.30
2022-08-30T12:20:11.479Z,188.52
2022-08-30T12:21:11.547Z,187.87
2022-08-30T12:22:11.648Z,188.19
2022-08-30T12:23:11.695Z,187.87
2022-08-30T12:24:11.775Z,188.52
2022-08-30T12:25:11.829Z,188.09
2022-08-30T12:26:11.914Z,188.73
2022-08-30T12:27:12.004Z,187.24
2022-08-30T12:28:12.182Z,187.34
2022-08-30T12:29:12.152Z,189.05